createdAt,value
2018-06-25T00:01:49.652Z,13.60
2018-06-25T00:04:20.202Z,13.60
2018-06-25T00:06:50.229Z,13.60
2018-06-25T00:09:20.861Z,13.50
2018-06-25T00:11:50.373Z,13.50
2018-06-25T00:14:20.007Z,13.40
2018-06-25T00:16:49.725Z,13.40
2018-06-25T00:19:19.526Z,13.30
2018-06-25T00:21:49.858Z,13.30
2018-06-25T00:24:19.889Z,13.20
2018-06-25T00:26:49.463Z,13.30
2018-06-25T00:29:19.234Z,13.20
2018-06-25T00:31:49.116Z,13.20
2018-06-25T00:34:18.722Z,13.10
2018-06-25T00:36:48.346Z,13.00
2018-06-25T00:39:18.110Z,13.00
2018-06-25T00:41:47.648Z,13.00
2018-06-25T00:44:17.155Z,12.90
2018-06-25T00:46:46.800Z,12.90
2018-06-25T00:49:17.904Z,13.00
2018-06-25T00:51:47.803Z,13.00
2018-06-25T00:54:17.406Z,12.90
2018-06-25T00:56:47.133Z,12.90
2018-06-25T00:59:27.454Z,12.80
2018-06-25T01:01:57.862Z,12.80
2018-06-25T01:04:27.344Z,12.80
2018-06-25T01:06:57.311Z,12.70
2018-06-25T01:09:27.366Z,12.70
2018-06-25T01:11:57.146Z,12.60
2018-06-25T01:14:27.296Z,12.60
2018-06-25T01:16:57.126Z,12.50
2018-06-25T01:19:27.215Z,12.40
2018-06-25T01:21:56.729Z,12.40
2018-06-25T01:24:26.835Z,12.40
2018-06-25T01:29:26.346Z,12.30
2018-06-25T01:31:56.085Z,12.20
2018-06-25T01:34:25.714Z,12.10
2018-06-25T01:36:55.579Z,12.10
2018-06-25T01:39:25.434Z,12.00
2018-06-25T01:41:54.966Z,12.00
2018-06-25T01:44:24.451Z,11.90
2018-06-25T01:46:54.153Z,11.90
2018-06-25T01:49:24.101Z,11.90
2018-06-25T01:51:53.937Z,11.90
2018-06-25T01:54:24.691Z,11.90
2018-06-25T01:56:54.302Z,12.00
2018-06-25T01:59:24.012Z,12.00
2018-06-25T02:01:53.809Z,12.10
2018-06-25T02:04:23.335Z,12.10
2018-06-25T02:06:52.937Z,12.10
2018-06-25T02:09:22.377Z,12.20
2018-06-25T02:11:51.823Z,12.20
2018-06-25T02:14:21.577Z,12.20
2018-06-25T02:16:51.676Z,12.20
2018-06-25T02:19:21.474Z,12.20
2018-06-25T02:21:51.090Z,12.20
2018-06-25T02:24:20.692Z,12.20
2018-06-25T02:26:50.136Z,12.20
2018-06-25T02:29:19.894Z,12.20
2018-06-25T02:31:49.350Z,12.20
2018-06-25T02:34:19.398Z,12.10
2018-06-25T02:36:48.942Z,12.20
2018-06-25T02:39:18.537Z,12.10
2018-06-25T02:41:48.582Z,12.20
2018-06-25T02:44:18.430Z,12.20
2018-06-25T02:46:47.858Z,12.20
2018-06-25T02:49:17.445Z,12.20
2018-06-25T02:51:47.464Z,12.20
2018-06-25T02:54:17.675Z,12.20
2018-06-25T02:56:47.310Z,12.20
2018-06-25T02:59:16.809Z,12.20
2018-06-25T03:01:46.521Z,12.20
2018-06-25T03:04:16.297Z,12.20
2018-06-25T03:06:45.863Z,12.20
2018-06-25T03:09:15.454Z,12.20
2018-06-25T03:11:45.282Z,12.20
2018-06-25T03:14:15.696Z,12.40
2018-06-25T03:20:05.129Z,12.40
2018-06-25T03:22:34.485Z,12.30
2018-06-25T03:25:04.165Z,12.40
2018-06-25T03:27:33.683Z,12.40
2018-06-25T03:30:03.335Z,12.50
2018-06-25T03:32:32.827Z,12.50
2018-06-25T03:35:03.100Z,12.60
2018-06-25T03:37:32.519Z,12.60
2018-06-25T03:40:02.364Z,12.60
2018-06-25T03:42:32.153Z,12.70
2018-06-25T03:45:01.896Z,12.70
2018-06-25T03:47:31.547Z,12.80
2018-06-25T03:50:01.065Z,12.80
2018-06-25T03:52:30.832Z,12.80
2018-06-25T03:55:00.367Z,12.80
2018-06-25T03:57:29.747Z,12.80
2018-06-25T03:59:59.263Z,12.80
2018-06-25T04:02:28.870Z,12.80
2018-06-25T04:04:58.631Z,12.90
2018-06-25T04:07:28.074Z,12.90
2018-06-25T04:09:57.537Z,12.90
2018-06-25T04:12:26.972Z,13.00
2018-06-25T04:14:57.410Z,13.10
2018-06-25T04:17:26.994Z,13.10
2018-06-25T04:19:56.500Z,13.20
2018-06-25T04:22:25.984Z,13.20
2018-06-25T04:24:56.221Z,13.20
2018-06-25T04:27:25.724Z,13.30
2018-06-25T04:29:55.251Z,13.30
2018-06-25T04:32:25.209Z,13.30
2018-06-25T04:34:54.791Z,13.40
2018-06-25T04:37:24.271Z,13.40
2018-06-25T04:39:53.657Z,13.50
2018-06-25T04:42:23.072Z,13.50
2018-06-25T04:44:52.525Z,13.40
2018-06-25T04:47:22.160Z,13.60
2018-06-25T04:49:54.097Z,13.50
2018-06-25T04:52:23.678Z,13.50
2018-06-25T04:54:53.071Z,13.60
2018-06-25T04:57:22.519Z,13.60
2018-06-25T04:59:52.113Z,13.60
2018-06-25T05:02:21.444Z,13.60
2018-06-25T05:04:50.971Z,13.80
2018-06-25T05:07:20.611Z,14.00
2018-06-25T05:09:50.289Z,13.90
2018-06-25T05:12:19.861Z,14.10
2018-06-25T05:14:49.391Z,14.30
2018-06-25T05:19:47.873Z,14.40
2018-06-25T05:22:17.420Z,14.50
2018-06-25T05:24:46.821Z,14.40
2018-06-25T05:27:16.344Z,14.40
2018-06-25T05:29:45.746Z,14.40
2018-06-25T05:32:15.174Z,14.60
2018-06-25T05:34:44.703Z,14.70
2018-06-25T05:37:13.981Z,15.10
2018-06-25T05:39:43.610Z,15.50
2018-06-25T05:42:18.543Z,15.80
2018-06-25T05:44:48.079Z,15.90
2018-06-25T05:47:17.791Z,16.10
2018-06-25T05:49:47.280Z,16.10
2018-06-25T05:52:16.720Z,15.60
2018-06-25T05:54:46.329Z,15.30
2018-06-25T05:57:15.875Z,15.80
2018-06-25T05:59:45.488Z,15.70
2018-06-25T06:02:15.169Z,16.00
2018-06-25T06:04:45.342Z,15.20
2018-06-25T06:07:14.807Z,14.80
2018-06-25T06:09:44.327Z,14.70
2018-06-25T06:12:13.738Z,14.80
2018-06-25T06:14:43.666Z,14.50
2018-06-25T06:17:13.002Z,14.60
2018-06-25T06:19:42.466Z,14.50
2018-06-25T06:22:11.997Z,14.40
2018-06-25T06:24:41.514Z,14.50
2018-06-25T06:27:10.998Z,14.50
2018-06-25T06:29:40.600Z,14.50
2018-06-25T06:32:11.518Z,14.70
2018-06-25T06:34:41.310Z,15.00
2018-06-25T06:37:10.773Z,15.20
2018-06-25T06:39:40.264Z,15.30
2018-06-25T06:42:09.746Z,15.80
2018-06-25T06:44:39.331Z,16.80
2018-06-25T06:47:08.840Z,17.60
2018-06-25T06:49:38.261Z,16.90
2018-06-25T06:52:07.958Z,16.30
2018-06-25T06:54:37.505Z,16.00
2018-06-25T06:57:07.328Z,15.70
2018-06-25T06:59:36.929Z,15.70
2018-06-25T07:02:06.635Z,15.40
2018-06-25T07:04:36.250Z,15.40
2018-06-25T07:07:05.713Z,15.30
2018-06-25T07:09:34.879Z,15.40
2018-06-25T07:12:04.346Z,15.60
2018-06-25T07:14:33.876Z,15.70
2018-06-25T07:17:03.596Z,16.60
2018-06-25T07:19:33.876Z,17.70
2018-06-25T07:22:03.447Z,17.80
2018-06-25T07:24:33.701Z,17.50
2018-06-25T07:27:02.973Z,17.60
2018-06-25T07:29:32.556Z,17.70
2018-06-25T07:32:01.831Z,18.00
2018-06-25T07:37:00.124Z,21.60
2018-06-25T07:39:29.596Z,20.70
2018-06-25T07:42:00.436Z,20.90
2018-06-25T07:44:30.075Z,20.20
2018-06-25T07:47:00.416Z,20.20
2018-06-25T07:49:30.109Z,20.80
2018-06-25T07:51:59.582Z,21.50
2018-06-25T07:54:29.046Z,21.90
2018-06-25T07:56:58.636Z,21.20
2018-06-25T07:59:28.147Z,21.80
2018-06-25T08:01:57.689Z,23.00
2018-06-25T08:04:27.169Z,23.10
2018-06-25T08:06:56.662Z,22.40
2018-06-25T08:09:26.083Z,21.60
2018-06-25T08:11:55.585Z,18.10
2018-06-25T08:14:24.886Z,17.10
2018-06-25T08:16:54.345Z,16.50
2018-06-25T08:19:24.003Z,16.20
2018-06-25T08:21:53.609Z,16.00
2018-06-25T08:24:23.536Z,15.80
2018-06-25T08:26:52.840Z,15.70
2018-06-25T08:29:22.494Z,15.60
2018-06-25T08:31:52.022Z,15.60
2018-06-25T08:34:21.616Z,15.80
2018-06-25T08:36:51.268Z,16.30
2018-06-25T08:39:20.628Z,16.80
2018-06-25T08:41:50.091Z,17.00
2018-06-25T08:44:19.704Z,17.30
2018-06-25T08:46:49.034Z,17.40
2018-06-25T08:49:18.500Z,18.50
2018-06-25T08:51:48.170Z,19.80
2018-06-25T08:54:17.498Z,18.50
2018-06-25T08:56:47.151Z,18.50
2018-06-25T08:59:16.611Z,18.30
2018-06-25T09:01:46.071Z,18.70
2018-06-25T09:04:15.730Z,18.30
2018-06-25T09:06:45.538Z,18.60
2018-06-25T09:09:15.170Z,19.90
2018-06-25T09:11:44.935Z,18.80
2018-06-25T09:14:14.544Z,18.20
2018-06-25T09:16:44.044Z,17.70
2018-06-25T09:19:14.438Z,17.30
2018-06-25T09:21:44.885Z,16.90
2018-06-25T09:24:14.256Z,16.60
2018-06-25T09:26:44.020Z,16.80
2018-06-25T09:29:13.432Z,17.00
2018-06-25T09:31:43.005Z,17.00
2018-06-25T09:34:17.715Z,17.10
2018-06-25T09:36:47.047Z,17.10
2018-06-25T09:39:16.483Z,17.10
2018-06-25T09:41:46.170Z,17.20
2018-06-25T09:46:44.415Z,17.30
2018-06-25T09:49:13.904Z,19.10
2018-06-25T09:51:43.704Z,22.10
2018-06-25T09:54:13.053Z,22.60
2018-06-25T09:56:42.378Z,22.50
2018-06-25T09:59:13.534Z,20.40
2018-06-25T10:01:43.343Z,19.10
2018-06-25T10:04:12.892Z,18.80
2018-06-25T10:06:42.402Z,18.90
2018-06-25T10:09:12.905Z,18.80
2018-06-25T10:11:42.560Z,19.00
2018-06-25T10:14:11.919Z,19.10
2018-06-25T10:16:47.429Z,18.90
2018-06-25T10:19:17.031Z,19.10
2018-06-25T10:21:46.410Z,19.40
2018-06-25T10:24:16.898Z,19.70
2018-06-25T10:26:46.333Z,19.80
2018-06-25T10:29:16.537Z,19.80
2018-06-25T10:31:45.776Z,20.70
2018-06-25T10:34:15.202Z,22.40
2018-06-25T10:36:44.537Z,23.30
2018-06-25T10:39:14.168Z,22.30
2018-06-25T10:41:43.506Z,23.00
2018-06-25T10:44:12.923Z,23.90
2018-06-25T10:46:42.352Z,25.50
2018-06-25T10:49:11.836Z,25.80
2018-06-25T10:51:41.552Z,25.60
2018-06-25T10:54:11.028Z,23.80
2018-06-25T10:56:40.651Z,22.20
2018-06-25T10:59:10.232Z,22.10
2018-06-25T11:01:40.039Z,21.70
2018-06-25T11:04:09.605Z,20.80
2018-06-25T11:06:39.302Z,20.90
2018-06-25T11:09:10.763Z,21.10
2018-06-25T11:11:40.271Z,20.80
2018-06-25T11:14:09.981Z,20.10
2018-06-25T11:16:39.642Z,20.00
2018-06-25T11:19:08.988Z,19.50
2018-06-25T11:21:38.480Z,19.80
2018-06-25T11:24:08.132Z,20.10
2018-06-25T11:26:37.938Z,20.10
2018-06-25T11:29:07.579Z,19.80
2018-06-25T11:31:37.406Z,19.70
2018-06-25T11:34:07.003Z,20.00
2018-06-25T11:36:36.986Z,20.40
2018-06-25T11:39:09.898Z,20.40
2018-06-25T11:41:39.256Z,19.80
2018-06-25T11:44:12.864Z,19.90
2018-06-25T11:46:42.563Z,20.30
2018-06-25T11:49:16.960Z,21.30
2018-06-25T11:51:54.396Z,22.00
2018-06-25T11:54:27.733Z,23.10
2018-06-25T11:56:57.541Z,23.20
2018-06-25T11:59:28.793Z,21.70
2018-06-25T12:01:58.515Z,21.30
2018-06-25T12:04:28.569Z,20.70
2018-06-25T12:06:58.993Z,20.20
2018-06-25T12:09:28.594Z,20.20
2018-06-25T12:11:58.079Z,21.00
2018-06-25T12:14:27.569Z,21.80
2018-06-25T12:16:57.123Z,22.60
2018-06-25T12:19:26.685Z,22.10
2018-06-25T12:21:56.237Z,21.50
2018-06-25T12:24:25.810Z,21.00
2018-06-25T12:26:55.194Z,20.80
2018-06-25T12:29:24.851Z,21.10
2018-06-25T12:31:56.041Z,22.20
2018-06-25T12:34:26.916Z,21.90
2018-06-25T12:36:56.352Z,22.30
2018-06-25T12:39:44.470Z,22.20
2018-06-25T12:42:14.253Z,22.10
2018-06-25T12:44:44.895Z,22.30
2018-06-25T12:47:14.366Z,22.60
2018-06-25T12:49:43.926Z,23.70
2018-06-25T12:52:22.203Z,22.70
2018-06-25T12:54:52.043Z,22.80
2018-06-25T12:57:22.061Z,22.80
2018-06-25T12:59:51.417Z,21.70
2018-06-25T13:02:25.529Z,21.50
2018-06-25T13:04:55.673Z,21.20
2018-06-25T13:07:25.171Z,21.20
2018-06-25T13:09:54.971Z,21.30
2018-06-25T13:12:24.492Z,20.90
2018-06-25T13:15:01.617Z,20.60
2018-06-25T13:17:34.224Z,21.20
2018-06-25T13:20:04.930Z,22.10
2018-06-25T13:22:34.285Z,22.50
2018-06-25T13:25:04.105Z,23.20
2018-06-25T13:27:33.572Z,22.20
2018-06-25T13:30:03.968Z,21.80
2018-06-25T13:32:33.244Z,21.90
2018-06-25T13:35:03.470Z,22.20
2018-06-25T13:37:40.613Z,22.40
2018-06-25T13:40:10.053Z,22.10
2018-06-25T13:42:39.670Z,21.30
2018-06-25T13:45:10.164Z,21.20
2018-06-25T13:47:40.037Z,21.00
2018-06-25T13:50:09.478Z,21.10
2018-06-25T13:52:38.920Z,20.90
2018-06-25T13:55:08.638Z,21.30
2018-06-25T13:57:38.202Z,22.20
2018-06-25T14:00:08.200Z,22.20
2018-06-25T14:02:37.583Z,22.80
2018-06-25T14:05:07.290Z,23.20
2018-06-25T14:07:37.164Z,23.10
2018-06-25T14:10:07.029Z,22.30
2018-06-25T14:12:36.763Z,21.60
2018-06-25T14:15:07.238Z,21.50
2018-06-25T14:17:36.928Z,22.10
2018-06-25T14:20:06.358Z,23.60
2018-06-25T14:22:35.890Z,25.50
2018-06-25T14:25:05.698Z,26.80
2018-06-25T14:27:40.605Z,25.20
2018-06-25T14:30:16.877Z,24.20
2018-06-25T14:32:54.931Z,23.60
2018-06-25T14:35:24.870Z,23.30
2018-06-25T14:37:55.038Z,22.60
2018-06-25T14:40:24.722Z,23.00
2018-06-25T14:42:54.358Z,23.20
2018-06-25T14:45:23.994Z,23.70
2018-06-25T14:47:53.725Z,23.70
2018-06-25T14:50:24.768Z,24.00
2018-06-25T14:52:54.629Z,23.30
2018-06-25T14:55:24.577Z,24.10
2018-06-25T14:57:57.616Z,23.80
2018-06-25T15:00:27.324Z,22.40
2018-06-25T15:02:56.992Z,22.10
2018-06-25T15:05:26.558Z,22.30
2018-06-25T15:07:56.271Z,23.10
2018-06-25T15:10:26.288Z,23.00
2018-06-25T15:12:56.208Z,22.70
2018-06-25T15:15:26.682Z,22.50
2018-06-25T15:17:56.345Z,22.70
2018-06-25T15:20:26.541Z,22.60
2018-06-25T15:22:57.514Z,22.80
2018-06-25T15:25:32.277Z,23.10
2018-06-25T15:28:02.066Z,23.10
2018-06-25T15:30:31.949Z,23.40
2018-06-25T15:33:01.720Z,23.30
2018-06-25T15:35:31.322Z,23.50
2018-06-25T15:38:00.849Z,23.30
2018-06-25T15:40:30.928Z,23.10
2018-06-25T15:43:00.648Z,23.30
2018-06-25T15:45:30.368Z,23.00
2018-06-25T15:48:00.297Z,23.40
2018-06-25T15:50:30.202Z,23.50
2018-06-25T15:53:01.638Z,22.80
2018-06-25T15:55:31.393Z,22.80
2018-06-25T15:58:05.070Z,23.20
2018-06-25T16:03:04.484Z,24.00
2018-06-25T16:05:34.171Z,24.40
2018-06-25T16:08:04.251Z,23.90
2018-06-25T16:10:33.927Z,23.90
2018-06-25T16:13:03.654Z,24.00
2018-06-25T16:18:02.536Z,23.10
2018-06-25T16:20:32.282Z,22.90
2018-06-25T16:23:02.246Z,22.70
2018-06-25T16:28:22.224Z,22.60
2018-06-25T16:30:51.804Z,22.70
2018-06-25T16:33:21.423Z,22.30
2018-06-25T16:35:50.930Z,21.90
2018-06-25T16:38:20.532Z,21.80
2018-06-25T16:40:50.299Z,21.70
2018-06-25T16:43:19.880Z,21.80
2018-06-25T16:45:50.357Z,22.10
2018-06-25T16:48:19.923Z,22.20
2018-06-25T16:50:49.419Z,22.30
2018-06-25T16:53:19.046Z,21.90
2018-06-25T16:55:48.528Z,21.80
2018-06-25T16:58:18.288Z,21.50
2018-06-25T17:00:48.029Z,21.80
2018-06-25T17:03:17.766Z,22.10
2018-06-25T17:05:47.320Z,22.10
2018-06-25T17:08:17.110Z,22.40
2018-06-25T17:10:46.755Z,22.70
2018-06-25T17:13:16.650Z,22.80
2018-06-25T17:15:46.592Z,22.50
2018-06-25T17:18:16.240Z,22.10
2018-06-25T17:20:45.989Z,22.00
2018-06-25T17:23:15.801Z,21.80
2018-06-25T17:25:45.475Z,21.80
2018-06-25T17:28:15.137Z,21.90
2018-06-25T17:30:44.975Z,21.90
2018-06-25T17:33:14.697Z,21.80
2018-06-25T17:35:44.522Z,21.80
2018-06-25T17:38:14.084Z,21.50
2018-06-25T17:40:43.847Z,21.20
2018-06-25T17:43:13.678Z,20.60
2018-06-25T17:45:43.470Z,20.30
2018-06-25T17:48:13.030Z,20.50
2018-06-25T17:50:42.714Z,20.80
2018-06-25T17:53:13.238Z,21.10
2018-06-25T17:55:43.113Z,21.30
2018-06-25T17:58:12.879Z,21.20
2018-06-25T18:00:42.998Z,21.20
2018-06-25T18:03:12.714Z,21.10
2018-06-25T18:05:42.964Z,20.90
2018-06-25T18:08:12.939Z,20.70
2018-06-25T18:10:42.767Z,20.70
2018-06-25T18:13:12.903Z,20.70
2018-06-25T18:15:43.090Z,20.90
2018-06-25T18:18:12.904Z,20.90
2018-06-25T18:20:42.672Z,20.90
2018-06-25T18:23:11.910Z,20.90
2018-06-25T18:25:41.583Z,20.70
2018-06-25T18:28:11.191Z,20.80
2018-06-25T18:30:41.678Z,20.80
2018-06-25T18:33:11.397Z,20.70
2018-06-25T18:35:41.589Z,20.60
2018-06-25T18:38:11.326Z,20.40
2018-06-25T18:40:41.194Z,20.40
2018-06-25T18:43:11.063Z,20.30
2018-06-25T18:45:40.897Z,20.30
2018-06-25T18:48:10.830Z,20.10
2018-06-25T18:50:40.736Z,19.90
2018-06-25T18:53:10.358Z,19.60
2018-06-25T18:56:10.732Z,19.40
2018-06-25T18:58:40.513Z,19.20
2018-06-25T19:01:10.636Z,19.20
2018-06-25T19:03:40.452Z,19.00
2018-06-25T19:06:10.525Z,18.80
2018-06-25T19:08:40.295Z,18.50
2018-06-25T19:11:10.390Z,18.20
2018-06-25T19:13:40.286Z,18.00
2018-06-25T19:16:10.387Z,17.80
2018-06-25T19:18:40.286Z,17.60
2018-06-25T19:21:10.258Z,17.50
2018-06-25T19:23:41.739Z,17.40
2018-06-25T19:26:11.759Z,17.30
2018-06-25T19:28:41.932Z,17.10
2018-06-25T19:31:11.706Z,17.00
2018-06-25T19:33:41.902Z,16.80
2018-06-25T19:36:11.776Z,16.60
2018-06-25T19:38:41.698Z,16.40
2018-06-25T19:41:12.397Z,16.10
2018-06-25T19:43:42.129Z,15.80
2018-06-25T19:46:12.009Z,15.50
2018-06-25T19:48:41.952Z,15.30
2018-06-25T19:51:13.039Z,15.10
2018-06-25T19:53:42.742Z,14.90
2018-06-25T19:56:12.528Z,14.70
2018-06-25T19:58:42.423Z,14.50
2018-06-25T20:01:12.304Z,14.40
2018-06-25T20:03:41.987Z,14.20
2018-06-25T20:06:12.075Z,14.10
2018-06-25T20:08:41.967Z,13.90
2018-06-25T20:11:11.672Z,13.70
2018-06-25T20:13:41.387Z,13.50
2018-06-25T20:16:11.167Z,13.30
2018-06-25T20:18:41.034Z,13.10
2018-06-25T20:21:10.828Z,13.00
2018-06-25T20:23:41.902Z,12.80
2018-06-25T20:26:13.350Z,12.70
2018-06-25T20:28:43.912Z,12.60
2018-06-25T20:31:14.262Z,12.50
2018-06-25T20:33:44.538Z,12.40
2018-06-25T20:36:14.617Z,12.30
2018-06-25T20:38:46.535Z,12.20
2018-06-25T20:41:16.360Z,12.10
2018-06-25T20:43:46.320Z,12.10
2018-06-25T20:46:15.922Z,12.00
2018-06-25T20:48:45.844Z,11.90
2018-06-25T20:51:15.439Z,11.90
2018-06-25T20:53:45.191Z,11.80
2018-06-25T20:56:14.710Z,11.70
2018-06-25T20:58:44.164Z,11.70
2018-06-25T21:01:14.112Z,11.70
2018-06-25T21:03:43.700Z,11.70
2018-06-25T21:06:13.471Z,11.70
2018-06-25T21:08:43.126Z,11.80
2018-06-25T21:11:13.765Z,11.90
2018-06-25T21:13:43.789Z,12.00
2018-06-25T21:16:13.200Z,12.20
2018-06-25T21:18:42.801Z,12.20
2018-06-25T21:21:12.590Z,12.30
2018-06-25T21:23:42.218Z,12.30
2018-06-25T21:26:11.957Z,12.40
2018-06-25T21:28:41.783Z,12.40
2018-06-25T21:31:11.128Z,12.40
2018-06-25T21:33:40.577Z,12.40
2018-06-25T21:36:10.275Z,12.40
2018-06-25T21:38:39.612Z,12.40
2018-06-25T21:41:09.996Z,12.50
2018-06-25T21:43:39.968Z,12.50
2018-06-25T21:46:10.125Z,12.50
2018-06-25T21:48:39.608Z,12.50
2018-06-25T21:51:09.373Z,12.50
2018-06-25T21:53:39.243Z,12.50
2018-06-25T21:56:08.879Z,12.50
2018-06-25T21:58:38.261Z,12.50
2018-06-25T22:01:08.285Z,12.40
2018-06-25T22:03:37.806Z,12.30
2018-06-25T22:06:07.567Z,12.20
2018-06-25T22:08:37.119Z,12.10
2018-06-25T22:11:06.900Z,12.10
2018-06-25T22:13:36.392Z,12.10
2018-06-25T22:16:06.124Z,12.10
2018-06-25T22:18:35.717Z,12.00
2018-06-25T22:21:05.699Z,11.90
2018-06-25T22:23:35.175Z,11.80
2018-06-25T22:26:04.802Z,11.80
2018-06-25T22:28:34.359Z,11.80
2018-06-25T22:31:04.330Z,11.80
2018-06-25T22:33:33.859Z,11.80
2018-06-25T22:36:03.661Z,11.90
2018-06-25T22:38:33.336Z,11.80
2018-06-25T22:41:02.745Z,11.80
2018-06-25T22:43:32.247Z,11.70
2018-06-25T22:48:30.634Z,11.60
2018-06-25T22:50:59.955Z,11.60
2018-06-25T22:53:29.626Z,11.60
2018-06-25T22:55:59.541Z,11.70
2018-06-25T22:58:28.969Z,11.80
2018-06-25T23:00:58.689Z,12.00
2018-06-25T23:03:28.176Z,12.10
2018-06-25T23:08:27.706Z,12.20
2018-06-25T23:10:57.516Z,12.20
2018-06-25T23:13:27.481Z,12.20
2018-06-25T23:15:57.127Z,12.10
2018-06-25T23:18:26.495Z,12.10
2018-06-25T23:20:56.038Z,12.20
2018-06-25T23:23:25.546Z,12.30
2018-06-25T23:25:55.049Z,12.30
2018-06-25T23:28:24.561Z,12.50
2018-06-25T23:30:54.233Z,12.40
2018-06-25T23:33:24.107Z,12.50
2018-06-25T23:35:53.779Z,12.40
2018-06-25T23:38:23.209Z,12.30
2018-06-25T23:40:52.955Z,12.10
2018-06-25T23:43:22.620Z,12.10
2018-06-25T23:45:52.196Z,12.10
2018-06-25T23:48:21.794Z,12.20
2018-06-25T23:53:20.636Z,12.30
2018-06-25T23:55:50.223Z,12.40
2018-06-25T23:58:19.694Z,12.30
